createdAt,value
2024-03-19T00:00:11.183Z,78.92
2024-03-19T00:01:11.266Z,78.82
2024-03-19T00:02:11.152Z,78.30
2024-03-19T00:03:11.135Z,79.75
2024-03-19T00:04:11.120Z,80.98
2024-03-19T00:05:11.222Z,81.19
2024-03-19T00:06:11.116Z,80.36
2024-03-19T00:07:11.183Z,79.54
2024-03-19T00:08:11.122Z,80.26
2024-03-19T00:09:11.084Z,80.88
2024-03-19T00:10:11.063Z,79.95
2024-03-19T00:11:11.038Z,79.95
2024-03-19T00:12:11.068Z,79.03
2024-03-19T00:13:11.287Z,77.69
2024-03-19T00:14:11.305Z,78.20
2024-03-19T00:15:11.032Z,78.82
2024-03-19T00:16:10.998Z,78.72
2024-03-19T00:17:10.984Z,79.64
2024-03-19T00:18:11.004Z,81.39
2024-03-19T00:19:10.971Z,77.48
2024-03-19T00:20:11.382Z,78.10
2024-03-19T00:21:10.933Z,79.13
2024-03-19T00:22:10.948Z,79.44
2024-03-19T00:23:10.921Z,76.79
2024-03-19T00:24:10.900Z,77.31
2024-03-19T00:25:10.919Z,78.03
2024-03-19T00:26:11.186Z,80.19
2024-03-19T00:27:10.879Z,81.81
2024-03-19T00:28:10.899Z,82.32
2024-03-19T00:29:10.859Z,82.73
2024-03-19T00:30:10.856Z,83.55
2024-03-19T00:31:10.846Z,83.45
2024-03-19T00:32:11.330Z,83.76
2024-03-19T00:33:11.622Z,84.07
2024-03-19T00:34:10.987Z,84.38
2024-03-19T00:35:10.794Z,83.55
2024-03-19T00:36:10.775Z,83.76
2024-03-19T00:37:11.922Z,83.97
2024-03-19T00:38:10.754Z,84.17
2024-03-19T00:39:10.913Z,83.65
2024-03-19T00:40:11.031Z,84.07
2024-03-19T00:41:10.723Z,84.48
2024-03-19T00:42:10.722Z,83.90
2024-03-19T00:43:10.884Z,83.39
2024-03-19T00:44:11.074Z,82.35
2024-03-19T00:45:10.708Z,83.39
2024-03-19T00:46:11.005Z,84.93
2024-03-19T00:47:10.703Z,85.34
2024-03-19T00:48:11.223Z,84.93
2024-03-19T00:49:10.652Z,85.14
2024-03-19T00:50:10.871Z,85.75
2024-03-19T00:51:10.615Z,85.24
2024-03-19T00:52:10.608Z,83.49
2024-03-19T00:53:10.596Z,83.49
2024-03-19T00:54:10.577Z,83.28
2024-03-19T00:55:10.608Z,83.49
2024-03-19T00:56:10.601Z,81.53
2024-03-19T00:57:10.539Z,79.72
2024-03-19T00:58:10.561Z,80.19
2024-03-19T00:59:10.532Z,81.12
2024-03-19T01:00:10.513Z,80.91
2024-03-19T01:01:10.541Z,79.79
2024-03-19T01:02:10.487Z,80.40
2024-03-19T01:03:10.505Z,80.85
2024-03-19T01:04:10.468Z,81.74
2024-03-19T01:05:10.487Z,82.46
2024-03-19T01:06:10.447Z,80.02
2024-03-19T01:07:10.462Z,80.13
2024-03-19T01:08:10.500Z,83.12
2024-03-19T01:09:10.406Z,84.25
2024-03-19T01:10:10.409Z,84.14
2024-03-19T01:11:10.393Z,83.73
2024-03-19T01:12:10.416Z,84.66
2024-03-19T01:13:10.395Z,85.59
2024-03-19T01:14:10.350Z,84.56
2024-03-19T01:15:10.335Z,84.45
2024-03-19T01:16:10.357Z,84.91
2024-03-19T01:17:10.329Z,85.63
2024-03-19T01:18:10.314Z,85.63
2024-03-19T01:19:10.335Z,86.15
2024-03-19T01:20:10.301Z,86.45
2024-03-19T01:21:10.328Z,85.42
2024-03-19T01:22:10.269Z,84.91
2024-03-19T01:23:10.260Z,85.83
2024-03-19T01:24:10.283Z,86.15
2024-03-19T01:25:10.269Z,86.39
2024-03-19T01:26:10.285Z,86.08
2024-03-19T01:27:10.314Z,84.94
2024-03-19T01:28:10.219Z,83.91
2024-03-19T01:29:10.526Z,83.61
2024-03-19T01:30:10.215Z,80.10
2024-03-19T01:31:10.218Z,81.03
2024-03-19T01:32:10.220Z,82.16
2024-03-19T01:33:10.160Z,83.91
2024-03-19T01:34:10.198Z,83.40
2024-03-19T01:35:10.144Z,82.78
2024-03-19T01:36:10.130Z,83.29
2024-03-19T01:37:10.416Z,84.22
2024-03-19T01:38:10.126Z,84.84
2024-03-19T01:39:10.095Z,84.74
2024-03-19T01:40:10.097Z,84.84
2024-03-19T01:41:10.079Z,85.46
2024-03-19T01:42:10.076Z,85.36
2024-03-19T01:43:10.083Z,84.53
2024-03-19T01:44:10.053Z,84.43
2024-03-19T01:45:10.023Z,81.37
2024-03-19T01:46:10.039Z,81.48
2024-03-19T01:47:10.025Z,82.20
2024-03-19T01:48:09.994Z,84.06
2024-03-19T01:49:10.038Z,82.92
2024-03-19T01:50:09.961Z,82.20
2024-03-19T01:51:09.963Z,82.30
2024-03-19T01:52:10.059Z,83.85
2024-03-19T01:53:10.034Z,85.09
2024-03-19T01:54:09.943Z,85.50
2024-03-19T01:55:10.023Z,85.30
2024-03-19T01:56:10.002Z,83.85
2024-03-19T01:57:09.973Z,83.95
2024-03-19T01:58:09.917Z,84.67
2024-03-19T01:59:09.912Z,84.06
2024-03-19T02:00:09.874Z,84.67
2024-03-19T02:01:09.917Z,85.19
2024-03-19T02:02:09.843Z,85.50
2024-03-19T02:03:09.874Z,83.95
2024-03-19T02:04:09.818Z,83.33
2024-03-19T02:05:12.075Z,82.92
2024-03-19T02:06:09.805Z,83.95
2024-03-19T02:07:09.818Z,83.13
2024-03-19T02:08:09.778Z,82.10
2024-03-19T02:09:09.830Z,82.82
2024-03-19T02:10:09.882Z,82.82
2024-03-19T02:11:09.867Z,79.52
2024-03-19T02:12:09.754Z,80.96
2024-03-19T02:13:09.838Z,79.62
2024-03-19T02:14:09.761Z,78.28
2024-03-19T02:15:09.725Z,79.31
2024-03-19T02:16:09.741Z,79.93
2024-03-19T02:17:09.695Z,80.24
2024-03-19T02:18:09.683Z,80.04
2024-03-19T02:19:09.703Z,78.49
2024-03-19T02:20:09.643Z,78.28
2024-03-19T02:21:09.637Z,79.72
2024-03-19T02:22:09.645Z,79.52
2024-03-19T02:23:09.617Z,80.04
2024-03-19T02:24:09.602Z,80.04
2024-03-19T02:25:09.660Z,77.56
2024-03-19T02:26:09.591Z,79.52
2024-03-19T02:27:09.565Z,80.96
2024-03-19T02:28:09.568Z,81.48
2024-03-19T02:29:09.541Z,81.48
2024-03-19T02:30:09.562Z,81.27
2024-03-19T02:31:09.558Z,81.27
2024-03-19T02:32:09.513Z,79.31
2024-03-19T02:33:09.494Z,80.65
2024-03-19T02:34:09.493Z,81.37
2024-03-19T02:35:09.462Z,80.04
2024-03-19T02:36:09.460Z,76.94
2024-03-19T02:37:09.477Z,78.38
2024-03-19T02:38:09.436Z,79.72
2024-03-19T02:39:09.743Z,80.24
2024-03-19T02:40:09.439Z,82.51
2024-03-19T02:41:09.395Z,82.71
2024-03-19T02:42:09.396Z,82.92
2024-03-19T02:43:09.401Z,80.86
2024-03-19T02:44:09.375Z,80.76
2024-03-19T02:45:09.354Z,82.51
2024-03-19T02:46:09.366Z,83.64
2024-03-19T02:47:09.328Z,84.51
2024-03-19T02:48:09.340Z,84.92
2024-03-19T02:49:09.391Z,84.61
2024-03-19T02:50:09.351Z,84.81
2024-03-19T02:51:09.302Z,84.72
2024-03-19T02:52:09.290Z,83.27
2024-03-19T02:53:09.291Z,83.58
2024-03-19T02:54:09.280Z,82.45
2024-03-19T02:55:09.269Z,82.45
2024-03-19T02:56:09.243Z,83.27
2024-03-19T02:57:09.239Z,84.09
2024-03-19T02:58:09.225Z,84.72
2024-03-19T02:59:09.208Z,84.81
2024-03-19T03:00:09.213Z,85.02
2024-03-19T03:01:09.245Z,85.30
2024-03-19T03:02:09.176Z,85.71
2024-03-19T03:03:09.180Z,86.02
2024-03-19T03:04:09.150Z,85.91
2024-03-19T03:05:09.144Z,85.60
2024-03-19T03:06:09.130Z,83.58
2024-03-19T03:07:09.147Z,83.06
2024-03-19T03:08:09.110Z,84.41
2024-03-19T03:09:09.107Z,84.20
2024-03-19T03:10:09.095Z,82.55
2024-03-19T03:11:09.104Z,83.48
2024-03-19T03:12:09.089Z,83.06
2024-03-19T03:13:09.071Z,83.37
2024-03-19T03:14:09.062Z,83.48
2024-03-19T03:15:09.043Z,83.99
2024-03-19T03:16:09.036Z,83.58
2024-03-19T03:17:09.018Z,83.89
2024-03-19T03:18:09.247Z,84.51
2024-03-19T03:19:09.041Z,85.13
2024-03-19T03:20:08.988Z,85.23
2024-03-19T03:21:08.973Z,85.44
2024-03-19T03:22:08.982Z,83.93
2024-03-19T03:23:08.968Z,84.03
2024-03-19T03:24:08.938Z,84.13
2024-03-19T03:25:08.958Z,84.34
2024-03-19T03:26:08.917Z,84.55
2024-03-19T03:27:08.907Z,85.17
2024-03-19T03:28:08.900Z,85.47
2024-03-19T03:29:08.941Z,85.47
2024-03-19T03:30:08.897Z,85.47
2024-03-19T03:31:08.905Z,85.99
2024-03-19T03:32:08.903Z,86.13
2024-03-19T03:33:08.886Z,86.65
2024-03-19T03:34:08.847Z,86.86
2024-03-19T03:35:08.862Z,86.86
2024-03-19T03:36:08.818Z,86.86
2024-03-19T03:37:13.952Z,86.96
2024-03-19T03:38:08.795Z,86.65
2024-03-19T03:39:08.775Z,86.18
2024-03-19T03:40:08.775Z,86.28
2024-03-19T03:41:08.786Z,86.79
2024-03-19T03:42:08.795Z,87.10
2024-03-19T03:43:09.215Z,87.31
2024-03-19T03:44:08.736Z,87.62
2024-03-19T03:45:08.733Z,87.97
2024-03-19T03:46:08.714Z,87.97
2024-03-19T03:47:08.685Z,87.76
2024-03-19T03:48:08.694Z,87.35
2024-03-19T03:49:08.684Z,87.56
2024-03-19T03:50:08.670Z,86.42
2024-03-19T03:51:08.659Z,86.46
2024-03-19T03:52:08.641Z,86.77
2024-03-19T03:53:08.660Z,87.18
2024-03-19T03:54:08.614Z,87.39
2024-03-19T03:55:08.611Z,87.70
2024-03-19T03:56:08.598Z,87.81
2024-03-19T03:57:08.614Z,88.12
2024-03-19T03:58:08.587Z,88.43
2024-03-19T03:59:08.584Z,87.39
2024-03-19T04:00:08.543Z,87.60
2024-03-19T04:01:08.549Z,87.64
2024-03-19T04:02:08.524Z,87.64
2024-03-19T04:03:08.503Z,88.36
2024-03-19T04:04:08.517Z,88.88
2024-03-19T04:05:08.503Z,88.98
2024-03-19T04:06:08.493Z,88.57
2024-03-19T04:07:08.514Z,88.57
2024-03-19T04:08:10.902Z,88.67
2024-03-19T04:09:08.464Z,88.98
2024-03-19T04:10:08.448Z,89.09
2024-03-19T04:11:08.439Z,88.46
2024-03-19T04:12:08.428Z,88.78
2024-03-19T04:13:08.419Z,88.88
2024-03-19T04:14:08.383Z,89.09
2024-03-19T04:15:08.389Z,89.09
2024-03-19T04:16:08.367Z,89.19
2024-03-19T04:17:08.356Z,89.40
2024-03-19T04:18:08.358Z,89.40
2024-03-19T04:19:08.347Z,89.19
2024-03-19T04:20:08.319Z,89.19
2024-03-19T04:21:08.320Z,89.29
2024-03-19T04:22:08.302Z,89.09
2024-03-19T04:23:08.282Z,89.29
2024-03-19T04:24:08.290Z,89.50
2024-03-19T04:25:08.278Z,89.50
2024-03-19T04:26:08.278Z,88.46
2024-03-19T04:27:08.248Z,88.36
2024-03-19T04:28:08.234Z,88.36
2024-03-19T04:29:08.239Z,88.57
2024-03-19T04:30:08.233Z,88.46
2024-03-19T04:31:08.214Z,88.88
2024-03-19T04:32:08.206Z,88.67
2024-03-19T04:33:08.206Z,88.78
2024-03-19T04:34:08.174Z,89.09
2024-03-19T04:35:08.164Z,89.19
2024-03-19T04:36:08.156Z,89.23
2024-03-19T04:37:08.157Z,89.44
2024-03-19T04:38:08.158Z,89.54
2024-03-19T04:39:08.116Z,89.65
2024-03-19T04:40:08.119Z,87.37
2024-03-19T04:41:08.096Z,87.57
2024-03-19T04:42:08.085Z,88.30
2024-03-19T04:43:08.092Z,88.71
2024-03-19T04:44:08.066Z,88.82
2024-03-19T04:45:08.047Z,89.13
2024-03-19T04:46:08.048Z,89.38
2024-03-19T04:47:08.038Z,89.75
2024-03-19T04:48:08.051Z,90.00
2024-03-19T04:49:08.025Z,89.89
2024-03-19T04:50:08.120Z,90.00
2024-03-19T04:51:07.986Z,89.79
2024-03-19T04:52:10.580Z,89.79
2024-03-19T04:53:07.966Z,89.58
2024-03-19T04:54:07.962Z,89.79
2024-03-19T04:55:07.968Z,89.89
2024-03-19T04:56:07.930Z,90.10
2024-03-19T04:57:07.923Z,90.00
2024-03-19T04:58:07.927Z,89.79
2024-03-19T04:59:07.902Z,90.00
2024-03-19T05:00:07.981Z,90.10
2024-03-19T05:01:07.908Z,89.89
2024-03-19T05:02:07.884Z,90.04
2024-03-19T05:03:07.851Z,90.35
2024-03-19T05:04:07.861Z,90.35
2024-03-19T05:05:07.910Z,90.56
2024-03-19T05:06:07.831Z,90.66
2024-03-19T05:07:07.821Z,90.77
2024-03-19T05:08:07.823Z,90.77
2024-03-19T05:09:07.804Z,90.87
2024-03-19T05:10:07.785Z,90.87
2024-03-19T05:11:07.773Z,90.87
2024-03-19T05:12:07.755Z,90.97
2024-03-19T05:13:07.798Z,90.97
2024-03-19T05:14:07.756Z,90.97
2024-03-19T05:15:07.737Z,90.66
2024-03-19T05:16:07.711Z,90.66
2024-03-19T05:17:07.713Z,90.77
2024-03-19T05:18:07.695Z,90.87
2024-03-19T05:19:07.705Z,90.87
2024-03-19T05:20:07.700Z,90.81
2024-03-19T05:21:07.668Z,90.19
2024-03-19T05:22:07.663Z,90.50
2024-03-19T05:23:07.640Z,90.70
2024-03-19T05:24:07.764Z,90.81
2024-03-19T05:25:07.644Z,91.02
2024-03-19T05:26:07.656Z,90.91
2024-03-19T05:27:07.651Z,91.12
2024-03-19T05:28:07.640Z,91.02
2024-03-19T05:29:07.667Z,91.12
2024-03-19T05:30:07.807Z,91.02
2024-03-19T05:31:07.638Z,90.81
2024-03-19T05:32:07.548Z,90.91
2024-03-19T05:33:07.525Z,91.02
2024-03-19T05:34:07.520Z,91.12
2024-03-19T05:35:07.511Z,91.33
2024-03-19T05:36:07.499Z,91.22
2024-03-19T05:37:07.514Z,91.12
2024-03-19T05:38:07.475Z,91.22
2024-03-19T05:39:07.472Z,91.22
2024-03-19T05:40:07.471Z,91.33
2024-03-19T05:41:07.442Z,90.91
2024-03-19T05:42:07.463Z,90.81
2024-03-19T05:43:07.456Z,91.02
2024-03-19T05:44:07.418Z,91.02
2024-03-19T05:45:07.420Z,91.33
2024-03-19T05:46:07.421Z,91.43
2024-03-19T05:47:07.381Z,91.53
2024-03-19T05:48:07.369Z,91.74
2024-03-19T05:49:07.377Z,91.53
2024-03-19T05:50:07.354Z,91.22
2024-03-19T05:51:07.332Z,91.33
2024-03-19T05:52:07.325Z,91.22
2024-03-19T05:53:07.312Z,90.19
2024-03-19T05:54:07.308Z,89.87
2024-03-19T05:55:07.328Z,90.19
2024-03-19T05:56:07.304Z,90.60
2024-03-19T05:57:07.281Z,90.70
2024-03-19T05:58:07.259Z,90.70
2024-03-19T05:59:07.252Z,90.87
2024-03-19T06:00:07.235Z,91.08
2024-03-19T06:01:07.250Z,90.97
2024-03-19T06:02:07.218Z,91.08
2024-03-19T06:03:07.197Z,91.18
2024-03-19T06:04:07.192Z,91.08
2024-03-19T06:05:07.188Z,90.66
2024-03-19T06:06:07.175Z,90.56
2024-03-19T06:07:07.176Z,90.35
2024-03-19T06:08:07.154Z,90.04
2024-03-19T06:09:07.175Z,89.94
2024-03-19T06:10:07.137Z,90.04
2024-03-19T06:11:07.117Z,90.25
2024-03-19T06:12:07.461Z,90.56
2024-03-19T06:13:07.131Z,90.66
2024-03-19T06:14:07.080Z,90.77
2024-03-19T06:15:07.132Z,90.25
2024-03-19T06:16:07.083Z,90.25
2024-03-19T06:17:07.142Z,90.20
2024-03-19T06:18:07.135Z,90.31
2024-03-19T06:19:18.301Z,90.52
2024-03-19T06:20:07.039Z,88.18
2024-03-19T06:21:07.054Z,88.90
2024-03-19T06:22:07.000Z,89.31
2024-03-19T06:23:07.014Z,89.73
2024-03-19T06:24:07.036Z,89.89
2024-03-19T06:25:07.015Z,90.31
2024-03-19T06:26:07.031Z,90.41
2024-03-19T06:27:07.052Z,90.52
2024-03-19T06:28:06.989Z,90.52
2024-03-19T06:29:06.999Z,90.31
2024-03-19T06:30:06.981Z,90.06
2024-03-19T06:31:07.069Z,89.86
2024-03-19T06:32:06.893Z,89.75
2024-03-19T06:33:06.877Z,89.65
2024-03-19T06:34:06.879Z,89.34
2024-03-19T06:35:06.893Z,89.23
2024-03-19T06:36:06.859Z,88.82
2024-03-19T06:37:06.869Z,88.40
2024-03-19T06:38:06.845Z,88.61
2024-03-19T06:39:06.840Z,88.92
2024-03-19T06:40:06.816Z,89.44
2024-03-19T06:41:06.798Z,89.54
2024-03-19T06:42:06.784Z,89.23
2024-03-19T06:43:06.792Z,87.88
2024-03-19T06:44:06.779Z,88.40
2024-03-19T06:45:06.747Z,88.30
2024-03-19T06:46:06.738Z,88.26
2024-03-19T06:47:06.715Z,88.36
2024-03-19T06:48:06.722Z,88.16
2024-03-19T06:49:06.725Z,86.60
2024-03-19T06:50:06.692Z,86.40
2024-03-19T06:51:06.691Z,87.12
2024-03-19T06:52:06.676Z,87.64
2024-03-19T06:53:06.687Z,87.64
2024-03-19T06:54:06.662Z,87.70
2024-03-19T06:55:06.663Z,87.29
2024-03-19T06:56:06.633Z,86.77
2024-03-19T06:57:06.617Z,86.36
2024-03-19T06:58:06.629Z,86.15
2024-03-19T06:59:06.604Z,86.15
2024-03-19T07:00:06.591Z,86.25
2024-03-19T07:01:06.594Z,86.36
2024-03-19T07:02:06.557Z,86.01
2024-03-19T07:03:06.569Z,86.05
2024-03-19T07:04:07.563Z,85.49
2024-03-19T07:05:06.533Z,85.39
2024-03-19T07:06:07.142Z,85.39
2024-03-19T07:07:06.763Z,83.84
2024-03-19T07:08:06.494Z,84.87
2024-03-19T07:09:06.481Z,84.97
2024-03-19T07:10:06.739Z,85.18
2024-03-19T07:11:06.475Z,85.28
2024-03-19T07:12:06.455Z,84.45
2024-03-19T07:13:06.489Z,83.42
2024-03-19T07:14:06.429Z,83.32
2024-03-19T07:15:06.672Z,83.01
2024-03-19T07:16:06.640Z,83.63
2024-03-19T07:17:06.436Z,83.42
2024-03-19T07:18:06.635Z,83.70
2024-03-19T07:19:06.439Z,83.39
2024-03-19T07:20:06.371Z,83.49
2024-03-19T07:21:06.616Z,83.28
2024-03-19T07:22:06.348Z,83.55
2024-03-19T07:23:06.336Z,83.34
2024-03-19T07:24:06.337Z,83.04
2024-03-19T07:25:06.592Z,83.25
2024-03-19T07:26:06.302Z,83.04
2024-03-19T07:27:06.292Z,82.73
2024-03-19T07:28:06.284Z,82.59
2024-03-19T07:29:06.423Z,82.79
2024-03-19T07:30:06.259Z,82.69
2024-03-19T07:31:06.258Z,82.75
2024-03-19T07:32:06.241Z,82.55
2024-03-19T07:33:06.419Z,82.45
2024-03-19T07:34:06.232Z,82.55
2024-03-19T07:35:06.214Z,82.61
2024-03-19T07:36:06.232Z,81.27
2024-03-19T07:37:06.291Z,81.58
2024-03-19T07:38:06.183Z,81.79
2024-03-19T07:39:06.155Z,81.85
2024-03-19T07:40:06.440Z,81.85
2024-03-19T07:41:06.137Z,81.23
2024-03-19T07:42:06.366Z,80.62
2024-03-19T07:43:06.185Z,80.51
2024-03-19T07:44:06.341Z,79.96
2024-03-19T07:45:06.348Z,79.44
2024-03-19T07:46:06.080Z,78.41
2024-03-19T07:47:06.066Z,78.04
2024-03-19T07:48:06.081Z,78.97
2024-03-19T07:49:06.092Z,79.38
2024-03-19T07:50:06.038Z,80.00
2024-03-19T07:51:06.039Z,80.30
2024-03-19T07:52:06.025Z,80.00
2024-03-19T07:53:06.004Z,79.27
2024-03-19T07:54:06.230Z,79.75
2024-03-19T07:55:06.025Z,80.58
2024-03-19T07:56:05.975Z,80.58
2024-03-19T07:57:05.976Z,79.96
2024-03-19T07:58:05.983Z,79.86
2024-03-19T07:59:06.001Z,79.96
2024-03-19T08:00:06.216Z,78.72
2024-03-19T08:01:06.166Z,79.34
2024-03-19T08:02:05.906Z,79.86
2024-03-19T08:03:05.896Z,80.27
2024-03-19T08:04:06.299Z,80.54
2024-03-19T08:05:06.096Z,80.85
2024-03-19T08:06:06.041Z,79.41
2024-03-19T08:07:06.026Z,78.17
2024-03-19T08:08:05.867Z,77.86
2024-03-19T08:09:05.856Z,78.38
2024-03-19T08:10:05.849Z,78.38
2024-03-19T08:11:05.811Z,79.10
2024-03-19T08:12:05.803Z,79.51
2024-03-19T08:13:05.832Z,79.16
2024-03-19T08:14:06.013Z,78.86
2024-03-19T08:15:05.769Z,78.24
2024-03-19T08:16:05.766Z,78.65
2024-03-19T08:17:05.740Z,77.83
2024-03-19T08:18:05.748Z,78.34
2024-03-19T08:19:05.754Z,77.93
2024-03-19T08:20:05.706Z,78.82
2024-03-19T08:21:05.704Z,78.61
2024-03-19T08:22:05.932Z,76.90
2024-03-19T08:23:05.940Z,77.51
2024-03-19T08:24:05.672Z,76.90
2024-03-19T08:25:05.711Z,77.83
2024-03-19T08:26:05.658Z,78.34
2024-03-19T08:27:05.899Z,78.65
2024-03-19T08:28:05.644Z,77.51
2024-03-19T08:29:05.614Z,77.79
2024-03-19T08:30:06.732Z,78.20
2024-03-19T08:31:07.116Z,78.10
2024-03-19T08:32:05.576Z,78.00
2024-03-19T08:33:05.727Z,78.00
2024-03-19T08:34:05.721Z,78.20
2024-03-19T08:35:05.798Z,78.00
2024-03-19T08:36:05.546Z,78.58
2024-03-19T08:37:05.784Z,78.78
2024-03-19T08:38:05.506Z,78.47
2024-03-19T08:39:05.734Z,78.27
2024-03-19T08:40:05.504Z,78.33
2024-03-19T08:41:05.481Z,78.13
2024-03-19T08:42:06.916Z,77.31
2024-03-19T08:43:05.506Z,75.56
2024-03-19T08:44:05.447Z,76.48
2024-03-19T08:45:05.450Z,77.00
2024-03-19T08:46:05.430Z,77.41
2024-03-19T08:47:05.411Z,76.48
2024-03-19T08:48:05.676Z,76.38
2024-03-19T08:49:05.431Z,75.76
2024-03-19T08:50:05.391Z,76.69
2024-03-19T08:51:05.369Z,77.41
2024-03-19T08:52:05.355Z,77.72
2024-03-19T08:53:05.348Z,77.31
2024-03-19T08:54:05.342Z,75.76
2024-03-19T08:55:05.340Z,76.28
2024-03-19T08:56:05.322Z,76.90
2024-03-19T08:57:05.952Z,76.79
2024-03-19T08:58:05.307Z,77.10
2024-03-19T08:59:05.288Z,76.90
2024-03-19T09:00:05.277Z,76.07
2024-03-19T09:01:05.311Z,76.79
2024-03-19T09:02:05.403Z,76.48
2024-03-19T09:03:05.252Z,76.07
2024-03-19T09:04:05.228Z,76.18
2024-03-19T09:05:05.223Z,76.97
2024-03-19T09:06:05.223Z,76.86
2024-03-19T09:07:05.243Z,75.83
2024-03-19T09:08:05.418Z,76.55
2024-03-19T09:09:05.369Z,77.27
2024-03-19T09:10:05.172Z,77.85
2024-03-19T09:11:05.193Z,77.23
2024-03-19T09:12:05.144Z,76.00
2024-03-19T09:13:05.144Z,75.59
2024-03-19T09:14:05.285Z,76.21
2024-03-19T09:15:05.116Z,76.82
2024-03-19T09:16:05.139Z,77.85
2024-03-19T09:17:05.319Z,77.65
2024-03-19T09:18:05.068Z,77.23
2024-03-19T09:19:05.346Z,77.23
2024-03-19T09:20:05.067Z,77.34
2024-03-19T09:21:05.048Z,77.34
2024-03-19T09:22:05.027Z,76.10
2024-03-19T09:23:05.015Z,76.42
2024-03-19T09:24:05.008Z,76.62
2024-03-19T09:25:07.825Z,77.03
2024-03-19T09:26:04.995Z,77.03
2024-03-19T09:27:05.213Z,77.20
2024-03-19T09:28:05.137Z,76.48
2024-03-19T09:29:04.957Z,76.58
2024-03-19T09:30:04.943Z,77.06
2024-03-19T09:31:04.961Z,76.55
2024-03-19T09:32:04.941Z,75.73
2024-03-19T09:33:04.902Z,76.00
2024-03-19T09:34:05.139Z,75.08
2024-03-19T09:35:05.136Z,75.69
2024-03-19T09:36:05.129Z,75.49
2024-03-19T09:37:04.903Z,74.53
2024-03-19T09:38:04.859Z,74.53
2024-03-19T09:39:05.084Z,75.24
2024-03-19T09:40:04.851Z,75.01
2024-03-19T09:41:04.821Z,74.49
2024-03-19T09:42:04.820Z,74.70
2024-03-19T09:43:04.824Z,74.49
2024-03-19T09:44:05.025Z,73.98
2024-03-19T09:45:04.786Z,74.08
2024-03-19T09:46:04.767Z,73.98
2024-03-19T09:47:04.925Z,73.88
2024-03-19T09:48:04.769Z,74.19
2024-03-19T09:49:04.772Z,74.08
2024-03-19T09:50:04.764Z,73.88
2024-03-19T09:51:04.887Z,74.80
2024-03-19T09:52:04.734Z,74.87
2024-03-19T09:53:05.567Z,74.77
2024-03-19T09:54:06.421Z,75.59
2024-03-19T09:55:04.690Z,76.20
2024-03-19T09:56:04.687Z,75.48
2024-03-19T09:57:04.889Z,75.48
2024-03-19T09:58:04.633Z,75.48
2024-03-19T09:59:04.633Z,75.38
2024-03-19T10:00:04.658Z,75.28
2024-03-19T10:01:04.880Z,75.89
2024-03-19T10:02:04.614Z,75.86
2024-03-19T10:03:04.760Z,75.24
2024-03-19T10:04:04.574Z,74.53
2024-03-19T10:05:04.589Z,73.91
2024-03-19T10:06:04.732Z,74.02
2024-03-19T10:07:04.719Z,74.53
2024-03-19T10:08:04.528Z,75.24
2024-03-19T10:09:04.580Z,73.91
2024-03-19T10:10:04.745Z,73.81
2024-03-19T10:11:04.488Z,74.84
2024-03-19T10:12:04.491Z,75.86
2024-03-19T10:13:04.494Z,75.21
2024-03-19T10:14:04.622Z,75.52
2024-03-19T10:15:05.095Z,75.38
2024-03-19T10:16:04.478Z,74.46
2024-03-19T10:17:04.605Z,73.33
2024-03-19T10:18:04.646Z,73.33
2024-03-19T10:19:04.424Z,73.57
2024-03-19T10:20:04.646Z,74.35
2024-03-19T10:21:04.428Z,75.38
2024-03-19T10:22:04.380Z,74.46
2024-03-19T10:23:04.381Z,75.07
2024-03-19T10:24:04.624Z,74.73
2024-03-19T10:25:04.376Z,73.64
2024-03-19T10:26:04.611Z,74.56
2024-03-19T10:27:04.344Z,73.85
2024-03-19T10:28:04.334Z,74.05
2024-03-19T10:29:04.980Z,74.46
2024-03-19T10:30:04.553Z,75.38
2024-03-19T10:31:04.364Z,75.07
2024-03-19T10:32:11.500Z,75.79
2024-03-19T10:33:04.262Z,75.65
2024-03-19T10:34:04.418Z,75.55
2024-03-19T10:35:04.253Z,74.22
2024-03-19T10:36:04.252Z,74.02
2024-03-19T10:37:04.244Z,74.02
2024-03-19T10:38:04.230Z,74.63
2024-03-19T10:39:04.206Z,74.39
2024-03-19T10:40:04.211Z,73.47
2024-03-19T10:41:04.329Z,74.18
2024-03-19T10:42:04.158Z,74.80
2024-03-19T10:43:04.186Z,75.21
2024-03-19T10:44:04.307Z,74.46
2024-03-19T10:45:04.147Z,74.05
2024-03-19T10:46:04.129Z,74.25
2024-03-19T10:47:04.169Z,74.42
2024-03-19T10:48:04.317Z,74.52
2024-03-19T10:49:04.142Z,74.73
2024-03-19T10:50:04.104Z,73.36
2024-03-19T10:51:04.102Z,72.65
2024-03-19T10:52:09.453Z,73.16
2024-03-19T10:53:04.104Z,73.54
2024-03-19T10:54:04.262Z,72.31
2024-03-19T10:55:04.042Z,72.00
2024-03-19T10:56:04.029Z,72.00
2024-03-19T10:57:04.021Z,72.41
2024-03-19T10:58:03.983Z,71.29
2024-03-19T10:59:04.001Z,71.60
2024-03-19T11:00:04.216Z,71.70
2024-03-19T11:01:03.962Z,71.91
2024-03-19T11:02:03.947Z,72.21
2024-03-19T11:03:04.186Z,72.11
2024-03-19T11:04:03.928Z,72.41
2024-03-19T11:05:04.156Z,72.17
2024-03-19T11:06:03.938Z,72.38
2024-03-19T11:07:04.146Z,72.69
2024-03-19T11:08:04.107Z,72.69
2024-03-19T11:09:03.866Z,71.46
2024-03-19T11:10:04.132Z,71.46
2024-03-19T11:11:03.849Z,71.87
2024-03-19T11:12:04.073Z,71.87
2024-03-19T11:13:04.093Z,72.14
2024-03-19T11:14:04.073Z,71.53
2024-03-19T11:15:03.791Z,71.63
2024-03-19T11:16:03.942Z,72.04
2024-03-19T11:17:04.021Z,72.04
2024-03-19T11:18:04.018Z,71.23
2024-03-19T11:19:03.999Z,71.33
2024-03-19T11:20:03.996Z,70.85
2024-03-19T11:21:03.972Z,71.36
2024-03-19T11:22:03.731Z,72.48
2024-03-19T11:23:03.714Z,72.99
2024-03-19T11:24:03.714Z,73.40
2024-03-19T11:25:03.946Z,73.06
2024-03-19T11:27:10.692Z,73.67
2024-03-19T11:28:04.141Z,73.43
2024-03-19T11:29:04.146Z,73.13
2024-03-19T11:30:04.354Z,73.02
2024-03-19T11:31:03.747Z,73.13
2024-03-19T11:32:03.665Z,72.69
2024-03-19T11:33:03.904Z,71.67
2024-03-19T11:34:03.946Z,70.95
2024-03-19T11:35:04.030Z,70.55
2024-03-19T11:36:03.741Z,70.95
2024-03-19T11:37:03.712Z,72.69
2024-03-19T11:38:03.551Z,73.91
2024-03-19T11:39:03.551Z,72.28
2024-03-19T11:40:03.705Z,71.16
2024-03-19T11:41:09.746Z,71.47
2024-03-19T11:42:03.546Z,71.97
2024-03-19T11:43:03.526Z,72.38
2024-03-19T11:44:03.584Z,72.48
2024-03-19T11:45:03.879Z,71.77
2024-03-19T11:46:03.541Z,71.73
2024-03-19T11:47:03.459Z,71.43
2024-03-19T11:48:03.502Z,70.62
2024-03-19T11:49:03.515Z,70.21
2024-03-19T11:50:03.476Z,70.62
2024-03-19T11:51:03.463Z,70.72
2024-03-19T11:52:03.427Z,70.51
2024-03-19T11:53:03.402Z,71.23
2024-03-19T11:54:03.408Z,71.30
2024-03-19T11:55:03.401Z,71.19
2024-03-19T11:56:03.436Z,70.99
2024-03-19T11:57:03.418Z,70.28
2024-03-19T11:58:03.336Z,70.18
2024-03-19T11:59:03.384Z,70.55
2024-03-19T12:00:03.356Z,70.55
2024-03-19T12:01:03.946Z,70.72
2024-03-19T12:02:03.319Z,71.43
2024-03-19T12:03:03.579Z,71.30
2024-03-19T12:04:03.575Z,70.59
2024-03-19T12:05:03.398Z,70.35
2024-03-19T12:06:03.380Z,70.96
2024-03-19T12:07:03.391Z,70.55
2024-03-19T12:08:03.336Z,70.04
2024-03-19T12:09:03.994Z,69.13
2024-03-19T12:10:03.969Z,68.32
2024-03-19T12:11:03.306Z,68.93
2024-03-19T12:12:03.464Z,69.23
2024-03-19T12:13:03.553Z,70.35
2024-03-19T12:14:03.183Z,69.91
2024-03-19T12:15:03.260Z,69.30
2024-03-19T12:16:03.139Z,69.51
2024-03-19T12:17:03.145Z,69.47
2024-03-19T12:18:03.301Z,69.47
2024-03-19T12:19:03.224Z,69.37
2024-03-19T12:20:03.186Z,68.96
2024-03-19T12:21:03.362Z,69.07
2024-03-19T12:22:03.098Z,69.27
2024-03-19T12:23:03.604Z,68.66
2024-03-19T12:24:03.146Z,67.95
2024-03-19T12:25:03.047Z,68.05
2024-03-19T12:26:03.077Z,68.05
2024-03-19T12:27:03.083Z,68.35
2024-03-19T12:28:03.026Z,67.95
2024-03-19T12:29:03.037Z,68.87
2024-03-19T12:30:03.550Z,69.03
2024-03-19T12:31:03.008Z,69.13
2024-03-19T12:32:02.980Z,67.72
2024-03-19T12:33:03.243Z,68.29
2024-03-19T12:34:02.987Z,67.48
2024-03-19T12:35:02.930Z,67.99
2024-03-19T12:36:02.956Z,67.99
2024-03-19T12:37:02.963Z,68.19
2024-03-19T12:38:02.915Z,68.40
2024-03-19T12:39:03.168Z,68.80
2024-03-19T12:40:02.927Z,67.18
2024-03-19T12:41:02.892Z,67.21
2024-03-19T12:42:02.999Z,67.41
2024-03-19T12:43:02.949Z,67.61
2024-03-19T12:44:02.865Z,68.32
2024-03-19T12:45:02.989Z,67.95
2024-03-19T12:46:02.819Z,68.32
2024-03-19T12:47:02.807Z,69.07
2024-03-19T12:48:02.874Z,69.07
2024-03-19T12:49:02.804Z,69.27
2024-03-19T12:50:02.778Z,68.66
2024-03-19T12:51:02.825Z,68.08
2024-03-19T12:52:02.819Z,68.90
2024-03-19T12:53:02.752Z,69.51